createdAt,value
2018-08-10T03:07:32.040Z,14.08
2018-08-10T03:39:55.813Z,13.95
2018-08-10T03:42:22.485Z,13.92
2018-08-10T03:44:49.168Z,13.94
2018-08-10T03:47:15.996Z,13.94
2018-08-10T03:49:42.572Z,13.93
2018-08-10T03:52:09.049Z,13.94
2018-08-10T03:54:35.517Z,13.89
2018-08-10T03:57:02.427Z,13.85
2018-08-10T03:59:28.872Z,13.82
2018-08-10T04:01:55.339Z,13.78
2018-08-10T04:04:24.706Z,13.73
2018-08-10T04:06:52.672Z,13.67
2018-08-10T04:09:19.328Z,13.64
2018-08-10T04:51:30.431Z,13.47
2018-08-10T04:53:57.097Z,13.48
2018-08-10T04:56:23.731Z,13.48
2018-08-10T04:58:50.568Z,13.53
2018-08-10T05:01:17.208Z,13.54
2018-08-10T05:03:43.721Z,13.56
2018-08-10T05:06:10.697Z,13.55
2018-08-10T05:08:37.181Z,13.59
2018-08-10T05:12:05.431Z,13.62
2018-08-10T05:14:32.035Z,13.65
2018-08-10T05:30:37.871Z,13.87
2018-08-10T05:33:05.391Z,13.90
2018-08-10T05:35:33.563Z,13.96
2018-08-10T05:38:00.080Z,14.01
2018-08-10T05:40:26.589Z,14.06
2018-08-10T05:42:53.357Z,14.13
2018-08-10T05:45:20.609Z,14.17
2018-08-10T05:47:47.909Z,14.15
2018-08-10T07:53:32.381Z,17.72
2018-08-10T07:55:59.291Z,17.97
2018-08-10T07:58:25.842Z,17.66
2018-08-10T08:00:54.620Z,17.86
2018-08-10T08:03:22.391Z,18.10
2018-08-10T08:05:49.736Z,17.85
2018-08-10T08:08:16.895Z,17.74
2018-08-10T08:10:43.426Z,18.00
2018-08-10T08:13:09.927Z,17.81
2018-08-10T08:15:37.032Z,17.77
2018-08-10T08:18:03.609Z,18.05
2018-08-10T08:20:31.056Z,18.12
2018-08-10T08:22:59.109Z,17.91
2018-08-10T08:25:26.374Z,17.68
2018-08-10T08:27:53.331Z,17.94
2018-08-10T08:30:22.004Z,18.23
2018-08-10T08:32:48.742Z,18.17
2018-08-10T08:35:15.350Z,18.23
2018-08-10T08:37:42.277Z,18.62
2018-08-10T08:40:08.783Z,19.00
2018-08-10T08:42:37.001Z,18.67
2018-08-10T08:45:06.942Z,18.74
2018-08-10T08:47:33.622Z,18.32
2018-08-10T08:50:01.152Z,17.90
2018-08-10T08:52:27.648Z,17.87
2018-08-10T08:54:54.362Z,17.98
2018-08-10T08:57:21.196Z,18.43
2018-08-10T08:59:47.640Z,18.61
2018-08-10T09:02:14.133Z,19.32
2018-08-10T09:04:40.925Z,19.63
2018-08-10T09:07:09.085Z,19.39
2018-08-10T16:10:16.170Z,25.94
2018-08-10T16:12:42.671Z,24.80
2018-08-10T16:16:32.811Z,25.07
2018-08-10T18:24:11.684Z,21.03
2018-08-10T18:26:39.942Z,21.93
2018-08-10T18:29:06.567Z,22.45
2018-08-10T19:15:02.856Z,19.21
2018-08-10T19:17:29.802Z,19.00
2018-08-10T19:19:56.558Z,18.87
2018-08-10T19:22:24.126Z,18.76
2018-08-10T19:24:52.032Z,18.74
2018-08-10T19:27:19.975Z,18.71
2018-08-10T19:29:51.802Z,18.65
2018-08-10T19:32:22.216Z,18.59
2018-08-10T19:34:51.169Z,18.59
2018-08-10T19:37:17.729Z,18.59
2018-08-10T19:39:45.361Z,18.47
2018-08-10T19:42:11.939Z,18.43
2018-08-10T19:44:38.498Z,18.39
2018-08-10T19:52:14.323Z,18.28
2018-08-10T19:54:43.748Z,18.23
2018-08-10T19:57:11.550Z,18.17
2018-08-10T19:59:38.201Z,18.18
2018-08-10T20:02:05.234Z,18.22
2018-08-10T20:04:32.368Z,18.17
2018-08-10T20:07:01.602Z,18.19
2018-08-10T20:09:35.995Z,18.16
2018-08-10T20:12:02.796Z,18.16
2018-08-10T20:14:30.589Z,18.09
2018-08-10T20:16:59.700Z,18.11
2018-08-10T20:22:02.333Z,18.09
2018-08-10T20:24:29.498Z,18.05
2018-08-10T20:26:56.264Z,17.94
2018-08-10T20:29:22.793Z,17.86
2018-08-10T20:31:50.660Z,17.79
2018-08-10T20:34:17.341Z,17.87
2018-08-10T20:36:43.931Z,17.91
2018-08-10T20:39:11.374Z,17.89
2018-08-10T20:41:37.956Z,17.89
2018-08-10T20:44:04.494Z,17.88
2018-08-10T20:46:31.475Z,17.83
2018-08-10T20:48:59.076Z,17.81
2018-08-10T20:51:26.097Z,17.90
2018-08-10T20:53:54.973Z,17.97
2018-08-10T20:56:22.134Z,18.03
2018-08-10T20:58:48.609Z,17.98
2018-08-10T21:01:16.119Z,17.96
2018-08-10T21:03:42.656Z,17.86
2018-08-10T21:06:10.518Z,17.87
2018-08-10T21:08:37.478Z,17.87
2018-08-10T21:11:05.897Z,17.87
2018-08-10T21:13:32.524Z,17.88
2018-08-10T21:15:59.443Z,17.87
2018-08-10T21:18:26.128Z,17.80
2018-08-10T21:20:52.697Z,17.78
2018-08-10T21:23:20.193Z,17.71
2018-08-10T21:25:46.812Z,17.73
2018-08-10T21:28:13.396Z,17.75
2018-08-10T21:30:40.499Z,17.73
2018-08-10T21:33:08.631Z,17.71
2018-08-10T21:35:35.119Z,17.70
2018-08-10T21:38:02.691Z,17.63
2018-08-10T21:40:29.208Z,17.61
2018-08-10T21:42:55.730Z,17.55
2018-08-10T21:45:22.661Z,17.51
2018-08-10T21:47:51.375Z,17.53
2018-08-10T21:50:17.894Z,17.56
2018-08-10T23:37:04.494Z,17.13
2018-08-10T23:39:32.015Z,16.96
2018-08-10T23:41:59.482Z,16.85
2018-08-10T23:44:27.661Z,16.79
2018-08-10T23:46:54.781Z,16.79
2018-08-10T23:49:21.233Z,16.80
2018-08-10T23:51:48.056Z,16.71
2018-08-10T23:54:14.514Z,16.66
2018-08-10T23:56:40.964Z,16.69
2018-08-10T23:59:07.459Z,16.70
